sensor_id;sensor_type;location;lat;lon;timestamp;pressure;altitude;pressure_sealevel;temperature;humidity
61805;BME280;47725;47.912;7.356;2023-05-02T00:02:01;99435.89;;;15.20;52.55
61805;BME280;47725;47.912;7.356;2023-05-02T00:06:02;99436.83;;;15.18;52.68
61805;BME280;47725;47.912;7.356;2023-05-02T00:10:02;99437.52;;;15.16;52.73
61805;BME280;47725;47.912;7.356;2023-05-02T00:14:01;99438.98;;;15.14;53.07
61805;BME280;47725;47.912;7.356;2023-05-02T00:18:01;99439.00;;;15.12;53.15
61805;BME280;47725;47.912;7.356;2023-05-02T00:22:01;99438.64;;;15.09;53.36
61805;BME280;47725;47.912;7.356;2023-05-02T00:26:01;99437.75;;;15.06;53.50
61805;BME280;47725;47.912;7.356;2023-05-02T00:30:02;99437.02;;;15.04;53.95
61805;BME280;47725;47.912;7.356;2023-05-02T00:34:01;99436.08;;;15.01;53.75
61805;BME280;47725;47.912;7.356;2023-05-02T00:38:01;99436.49;;;14.99;53.79
61805;BME280;47725;47.912;7.356;2023-05-02T00:42:01;99438.06;;;14.95;54.21
61805;BME280;47725;47.912;7.356;2023-05-02T00:46:01;99440.23;;;14.92;54.52
61805;BME280;47725;47.912;7.356;2023-05-02T00:50:01;99441.24;;;14.90;54.63
61805;BME280;47725;47.912;7.356;2023-05-02T00:54:01;99442.24;;;14.88;54.83
61805;BME280;47725;47.912;7.356;2023-05-02T00:58:02;99442.31;;;14.86;54.91
61805;BME280;47725;47.912;7.356;2023-05-02T01:02:16;99443.22;;;14.84;54.93
61805;BME280;47725;47.912;7.356;2023-05-02T01:14:02;99449.34;;;14.80;55.44
61805;BME280;47725;47.912;7.356;2023-05-02T01:18:01;99451.70;;;14.79;55.20
61805;BME280;47725;47.912;7.356;2023-05-02T01:22:05;99453.78;;;14.77;55.26
61805;BME280;47725;47.912;7.356;2023-05-02T01:26:14;99455.75;;;14.74;55.59
61805;BME280;47725;47.912;7.356;2023-05-02T01:30:02;99457.64;;;14.70;55.62
61805;BME280;47725;47.912;7.356;2023-05-02T01:34:01;99459.14;;;14.67;55.67
61805;BME280;47725;47.912;7.356;2023-05-02T01:38:01;99460.71;;;14.65;55.88
61805;BME280;47725;47.912;7.356;2023-05-02T01:42:01;99461.97;;;14.62;55.74
61805;BME280;47725;47.912;7.356;2023-05-02T01:46:01;99463.17;;;14.60;55.73
61805;BME280;47725;47.912;7.356;2023-05-02T01:50:05;99462.86;;;14.57;56.08
61805;BME280;47725;47.912;7.356;2023-05-02T01:54:03;99464.04;;;14.52;56.44
61805;BME280;47725;47.912;7.356;2023-05-02T01:58:01;99464.75;;;14.47;56.46
61805;BME280;47725;47.912;7.356;2023-05-02T02:02:01;99465.84;;;14.40;56.72
61805;BME280;47725;47.912;7.356;2023-05-02T02:06:01;99466.89;;;14.31;56.87
61805;BME280;47725;47.912;7.356;2023-05-02T02:10:01;99469.48;;;14.21;57.13
61805;BME280;47725;47.912;7.356;2023-05-02T02:14:05;99472.39;;;14.11;57.55
61805;BME280;47725;47.912;7.356;2023-05-02T02:18:08;99474.67;;;14.02;57.52
61805;BME280;47725;47.912;7.356;2023-05-02T02:22:01;99477.93;;;13.92;57.62
61805;BME280;47725;47.912;7.356;2023-05-02T02:26:01;99480.14;;;13.82;58.06
61805;BME280;47725;47.912;7.356;2023-05-02T02:30:02;99482.64;;;13.72;58.37
61805;BME280;47725;47.912;7.356;2023-05-02T02:34:01;99484.52;;;13.63;58.32
61805;BME280;47725;47.912;7.356;2023-05-02T02:38:04;99486.54;;;13.53;58.61
61805;BME280;47725;47.912;7.356;2023-05-02T02:46:08;99490.03;;;13.36;59.01
61805;BME280;47725;47.912;7.356;2023-05-02T02:50:06;99490.64;;;13.28;59.08
61805;BME280;47725;47.912;7.356;2023-05-02T02:58:16;99493.75;;;13.13;59.12
61805;BME280;47725;47.912;7.356;2023-05-02T03:02:08;99495.42;;;13.06;59.38
61805;BME280;47725;47.912;7.356;2023-05-02T03:06:02;99497.17;;;12.98;59.57
61805;BME280;47725;47.912;7.356;2023-05-02T03:10:02;99500.34;;;12.90;59.72
61805;BME280;47725;47.912;7.356;2023-05-02T03:14:01;99504.10;;;12.83;59.57
61805;BME280;47725;47.912;7.356;2023-05-02T03:18:01;99508.11;;;12.76;59.86
61805;BME280;47725;47.912;7.356;2023-05-02T03:22:01;99510.69;;;12.68;60.14
61805;BME280;47725;47.912;7.356;2023-05-02T03:26:01;99514.11;;;12.59;60.17
61805;BME280;47725;47.912;7.356;2023-05-02T03:30:01;99519.00;;;12.49;60.65
61805;BME280;47725;47.912;7.356;2023-05-02T03:34:01;99522.93;;;12.40;60.88
61805;BME280;47725;47.912;7.356;2023-05-02T03:38:01;99527.38;;;12.32;60.71
61805;BME280;47725;47.912;7.356;2023-05-02T03:42:01;99533.69;;;12.25;60.81
61805;BME280;47725;47.912;7.356;2023-05-02T03:46:05;99539.90;;;12.18;61.05
61805;BME280;47725;47.912;7.356;2023-05-02T03:50:01;99546.36;;;12.11;61.23
61805;BME280;47725;47.912;7.356;2023-05-02T03:54:01;99551.14;;;12.05;61.16
61805;BME280;47725;47.912;7.356;2023-05-02T03:58:01;99555.55;;;12.00;60.98
61805;BME280;47725;47.912;7.356;2023-05-02T04:02:01;99560.97;;;11.97;61.13
61805;BME280;47725;47.912;7.356;2023-05-02T04:06:01;99565.30;;;11.95;61.36
61805;BME280;47725;47.912;7.356;2023-05-02T04:10:01;99569.89;;;11.93;61.47
61805;BME280;47725;47.912;7.356;2023-05-02T04:14:01;99573.88;;;11.90;61.70
61805;BME280;47725;47.912;7.356;2023-05-02T04:18:01;99578.17;;;11.89;61.54
61805;BME280;47725;47.912;7.356;2023-05-02T04:22:01;99583.32;;;11.90;61.38
61805;BME280;47725;47.912;7.356;2023-05-02T04:26:01;99587.45;;;11.89;61.79
61805;BME280;47725;47.912;7.356;2023-05-02T04:30:01;99590.66;;;11.86;62.17
61805;BME280;47725;47.912;7.356;2023-05-02T04:34:01;99593.87;;;11.84;62.57
61805;BME280;47725;47.912;7.356;2023-05-02T04:38:01;99597.06;;;11.82;62.56
61805;BME280;47725;47.912;7.356;2023-05-02T04:42:01;99600.02;;;11.81;62.69
61805;BME280;47725;47.912;7.356;2023-05-02T04:46:01;99602.79;;;11.81;62.44
61805;BME280;47725;47.912;7.356;2023-05-02T04:50:01;99606.92;;;11.80;62.82
61805;BME280;47725;47.912;7.356;2023-05-02T04:54:01;99610.75;;;11.79;63.11
61805;BME280;47725;47.912;7.356;2023-05-02T04:58:01;99613.99;;;11.76;63.16
61805;BME280;47725;47.912;7.356;2023-05-02T05:02:01;99618.31;;;11.73;63.00
61805;BME280;47725;47.912;7.356;2023-05-02T05:06:01;99624.58;;;11.72;62.86
61805;BME280;47725;47.912;7.356;2023-05-02T05:10:01;99631.38;;;11.71;63.12
61805;BME280;47725;47.912;7.356;2023-05-02T05:14:01;99637.36;;;11.70;63.46
61805;BME280;47725;47.912;7.356;2023-05-02T05:18:01;99643.59;;;11.70;63.48
61805;BME280;47725;47.912;7.356;2023-05-02T05:22:01;99650.73;;;11.72;63.51
61805;BME280;47725;47.912;7.356;2023-05-02T05:26:07;99656.09;;;11.76;63.21
61805;BME280;47725;47.912;7.356;2023-05-02T05:30:01;99662.95;;;11.81;63.38
61805;BME280;47725;47.912;7.356;2023-05-02T05:34:01;99669.64;;;11.86;63.30
61805;BME280;47725;47.912;7.356;2023-05-02T05:38:01;99676.57;;;11.92;63.21
61805;BME280;47725;47.912;7.356;2023-05-02T05:42:01;99683.06;;;11.99;63.07
61805;BME280;47725;47.912;7.356;2023-05-02T05:46:01;99688.39;;;12.10;62.54
61805;BME280;47725;47.912;7.356;2023-05-02T05:50:01;99694.48;;;12.30;61.60
61805;BME280;47725;47.912;7.356;2023-05-02T05:54:01;99699.63;;;12.51;61.65
61805;BME280;47725;47.912;7.356;2023-05-02T05:58:01;99704.88;;;12.75;60.57
61805;BME280;47725;47.912;7.356;2023-05-02T06:02:01;99707.15;;;13.02;59.85
61805;BME280;47725;47.912;7.356;2023-05-02T06:06:01;99708.29;;;13.29;59.21
61805;BME280;47725;47.912;7.356;2023-05-02T06:10:01;99708.20;;;13.43;60.51
61805;BME280;47725;47.912;7.356;2023-05-02T06:14:01;99709.74;;;13.57;60.34
61805;BME280;47725;47.912;7.356;2023-05-02T06:18:01;99711.45;;;13.74;60.38
61805;BME280;47725;47.912;7.356;2023-05-02T06:22:01;99713.31;;;13.97;58.93
61805;BME280;47725;47.912;7.356;2023-05-02T06:26:02;99715.94;;;14.08;59.97
61805;BME280;47725;47.912;7.356;2023-05-02T06:30:01;99718.90;;;14.12;60.76
61805;BME280;47725;47.912;7.356;2023-05-02T06:34:01;99723.94;;;14.22;60.55
61805;BME280;47725;47.912;7.356;2023-05-02T06:38:01;99727.23;;;14.33;60.42
61805;BME280;47725;47.912;7.356;2023-05-02T06:42:01;99730.10;;;14.47;59.82
61805;BME280;47725;47.912;7.356;2023-05-02T06:46:01;99731.96;;;14.78;57.90
61805;BME280;47725;47.912;7.356;2023-05-02T06:50:01;99735.22;;;15.04;58.19
61805;BME280;47725;47.912;7.356;2023-05-02T06:54:01;99737.44;;;15.15;59.59
61805;BME280;47725;47.912;7.356;2023-05-02T06:58:01;99738.55;;;15.20;59.95
61805;BME280;47725;47.912;7.356;2023-05-02T07:02:01;99736.39;;;15.29;58.97
61805;BME280;47725;47.912;7.356;2023-05-02T07:06:01;99735.68;;;15.46;58.55
61805;BME280;47725;47.912;7.356;2023-05-02T07:10:01;99736.42;;;15.63;58.64
61805;BME280;47725;47.912;7.356;2023-05-02T07:14:01;99737.95;;;15.77;58.36
61805;BME280;47725;47.912;7.356;2023-05-02T07:18:01;99738.95;;;15.85;59.04
61805;BME280;47725;47.912;7.356;2023-05-02T07:22:01;99739.48;;;15.92;59.01
61805;BME280;47725;47.912;7.356;2023-05-02T07:26:01;99740.26;;;15.99;58.37
61805;BME280;47725;47.912;7.356;2023-05-02T07:30:01;99742.72;;;16.06;58.21
61805;BME280;47725;47.912;7.356;2023-05-02T07:34:01;99745.59;;;16.13;57.91
61805;BME280;47725;47.912;7.356;2023-05-02T07:38:01;99748.81;;;16.22;57.12
61805;BME280;47725;47.912;7.356;2023-05-02T07:42:01;99750.95;;;16.30;57.16
61805;BME280;47725;47.912;7.356;2023-05-02T07:46:04;99752.45;;;16.40;56.44
61805;BME280;47725;47.912;7.356;2023-05-02T07:50:01;99753.96;;;16.52;56.22
61805;BME280;47725;47.912;7.356;2023-05-02T07:54:01;99755.41;;;16.64;55.56
61805;BME280;47725;47.912;7.356;2023-05-02T07:58:01;99756.76;;;16.76;54.94
61805;BME280;47725;47.912;7.356;2023-05-02T08:02:01;99758.10;;;16.87;54.21
61805;BME280;47725;47.912;7.356;2023-05-02T08:06:01;99760.06;;;17.01;54.06
61805;BME280;47725;47.912;7.356;2023-05-02T08:10:01;99761.47;;;17.15;53.25
61805;BME280;47725;47.912;7.356;2023-05-02T08:14:01;99762.42;;;17.31;53.00
61805;BME280;47725;47.912;7.356;2023-05-02T08:18:01;99762.91;;;17.46;52.30
61805;BME280;47725;47.912;7.356;2023-05-02T08:22:01;99763.45;;;17.60;52.00
61805;BME280;47725;47.912;7.356;2023-05-02T08:26:01;99764.76;;;17.74;51.86
61805;BME280;47725;47.912;7.356;2023-05-02T08:30:01;99764.59;;;17.91;51.50
61805;BME280;47725;47.912;7.356;2023-05-02T08:34:01;99765.47;;;18.09;50.68
61805;BME280;47725;47.912;7.356;2023-05-02T08:38:01;99766.35;;;18.26;50.89
61805;BME280;47725;47.912;7.356;2023-05-02T08:42:04;99768.87;;;18.42;49.70
61805;BME280;47725;47.912;7.356;2023-05-02T08:46:01;99770.26;;;18.57;49.99
61805;BME280;47725;47.912;7.356;2023-05-02T08:50:01;99771.23;;;18.70;48.87
61805;BME280;47725;47.912;7.356;2023-05-02T08:54:01;99772.20;;;18.82;49.67
61805;BME280;47725;47.912;7.356;2023-05-02T08:58:01;99773.22;;;18.98;48.51
61805;BME280;47725;47.912;7.356;2023-05-02T09:02:04;99774.64;;;19.16;48.28
61805;BME280;47725;47.912;7.356;2023-05-02T09:10:01;99778.50;;;19.44;47.71
61805;BME280;47725;47.912;7.356;2023-05-02T09:14:01;99779.67;;;19.55;46.51
61805;BME280;47725;47.912;7.356;2023-05-02T09:18:01;99781.91;;;19.66;46.24
61805;BME280;47725;47.912;7.356;2023-05-02T09:22:01;99783.26;;;19.78;45.48
61805;BME280;47725;47.912;7.356;2023-05-02T09:26:01;99784.47;;;19.94;45.94
61805;BME280;47725;47.912;7.356;2023-05-02T09:30:22;99785.71;;;20.09;45.33
61805;BME280;47725;47.912;7.356;2023-05-02T09:38:01;99788.59;;;20.39;43.77
61805;BME280;47725;47.912;7.356;2023-05-02T09:42:01;99790.23;;;20.53;44.26
61805;BME280;47725;47.912;7.356;2023-05-02T09:46:02;99790.00;;;20.68;44.06
61805;BME280;47725;47.912;7.356;2023-05-02T09:50:01;99789.68;;;20.84;42.39
61805;BME280;47725;47.912;7.356;2023-05-02T09:54:01;99790.72;;;20.99;42.49
61805;BME280;47725;47.912;7.356;2023-05-02T09:58:01;99791.66;;;21.13;43.29
61805;BME280;47725;47.912;7.356;2023-05-02T10:02:01;99790.36;;;21.24;43.58
61805;BME280;47725;47.912;7.356;2023-05-02T10:06:01;99788.90;;;21.36;41.48
61805;BME280;47725;47.912;7.356;2023-05-02T10:10:01;99790.46;;;21.44;41.00
61805;BME280;47725;47.912;7.356;2023-05-02T10:14:01;99790.59;;;21.50;41.01
61805;BME280;47725;47.912;7.356;2023-05-02T10:18:02;99791.22;;;21.55;42.49
61805;BME280;47725;47.912;7.356;2023-05-02T10:22:01;99791.99;;;21.62;41.12
61805;BME280;47725;47.912;7.356;2023-05-02T10:26:01;99790.39;;;21.70;40.69
61805;BME280;47725;47.912;7.356;2023-05-02T10:30:01;99789.34;;;21.82;41.38
61805;BME280;47725;47.912;7.356;2023-05-02T10:34:01;99789.29;;;21.93;40.55
61805;BME280;47725;47.912;7.356;2023-05-02T10:38:00;99789.31;;;21.99;40.50
61805;BME280;47725;47.912;7.356;2023-05-02T10:42:01;99789.40;;;22.01;40.13
61805;BME280;47725;47.912;7.356;2023-05-02T10:46:01;99787.70;;;22.04;40.34
61805;BME280;47725;47.912;7.356;2023-05-02T10:50:01;99786.47;;;22.12;40.21
61805;BME280;47725;47.912;7.356;2023-05-02T10:54:19;99784.06;;;22.22;39.79
61805;BME280;47725;47.912;7.356;2023-05-02T11:02:00;99779.88;;;22.40;38.75
61805;BME280;47725;47.912;7.356;2023-05-02T11:06:04;99777.43;;;22.49;38.82
61805;BME280;47725;47.912;7.356;2023-05-02T11:14:00;99772.77;;;22.70;38.18
61805;BME280;47725;47.912;7.356;2023-05-02T11:18:04;99771.50;;;22.79;38.67
61805;BME280;47725;47.912;7.356;2023-05-02T11:26:01;99768.25;;;22.83;37.44
61805;BME280;47725;47.912;7.356;2023-05-02T11:30:01;99766.35;;;22.87;37.85
61805;BME280;47725;47.912;7.356;2023-05-02T11:34:01;99763.99;;;22.93;36.32
61805;BME280;47725;47.912;7.356;2023-05-02T11:38:01;99761.08;;;23.03;37.28
61805;BME280;47725;47.912;7.356;2023-05-02T11:42:00;99758.67;;;23.11;36.57
61805;BME280;47725;47.912;7.356;2023-05-02T11:46:00;99757.11;;;23.12;36.56
61805;BME280;47725;47.912;7.356;2023-05-02T11:50:03;99756.41;;;23.06;37.51
61805;BME280;47725;47.912;7.356;2023-05-02T11:54:00;99755.05;;;22.98;36.35
61805;BME280;47725;47.912;7.356;2023-05-02T11:58:00;99753.92;;;22.95;36.81
61805;BME280;47725;47.912;7.356;2023-05-02T12:02:00;99751.93;;;22.97;36.20
61805;BME280;47725;47.912;7.356;2023-05-02T12:06:07;99750.03;;;23.06;36.85
61805;BME280;47725;47.912;7.356;2023-05-02T12:10:00;99747.02;;;23.17;36.39
61805;BME280;47725;47.912;7.356;2023-05-02T12:14:00;99745.79;;;23.27;35.57
61805;BME280;47725;47.912;7.356;2023-05-02T12:18:00;99744.11;;;23.38;35.08
61805;BME280;47725;47.912;7.356;2023-05-02T12:22:00;99744.05;;;23.48;34.92
61805;BME280;47725;47.912;7.356;2023-05-02T12:26:14;99742.99;;;23.47;35.44
61805;BME280;47725;47.912;7.356;2023-05-02T12:30:00;99741.66;;;23.47;33.72
61805;BME280;47725;47.912;7.356;2023-05-02T12:34:00;99740.45;;;23.51;35.29
61805;BME280;47725;47.912;7.356;2023-05-02T12:38:10;99738.72;;;23.61;33.74
61805;BME280;47725;47.912;7.356;2023-05-02T12:42:07;99738.39;;;23.69;34.28
61805;BME280;47725;47.912;7.356;2023-05-02T12:46:09;99737.13;;;23.75;33.99
61805;BME280;47725;47.912;7.356;2023-05-02T12:50:00;99734.74;;;23.83;33.44
61805;BME280;47725;47.912;7.356;2023-05-02T12:54:01;99734.12;;;23.89;34.45
61805;BME280;47725;47.912;7.356;2023-05-02T13:02:00;99733.40;;;23.98;33.56
61805;BME280;47725;47.912;7.356;2023-05-02T13:06:01;99731.70;;;23.98;32.58
61805;BME280;47725;47.912;7.356;2023-05-02T13:10:00;99730.91;;;23.97;33.62
61805;BME280;47725;47.912;7.356;2023-05-02T13:14:00;99732.15;;;23.90;32.94
61805;BME280;47725;47.912;7.356;2023-05-02T13:18:00;99732.34;;;23.81;33.39
61805;BME280;47725;47.912;7.356;2023-05-02T13:22:00;99730.89;;;23.77;33.29
61805;BME280;47725;47.912;7.356;2023-05-02T13:26:00;99729.06;;;23.77;34.16
61805;BME280;47725;47.912;7.356;2023-05-02T13:30:00;99727.73;;;23.77;32.47
61805;BME280;47725;47.912;7.356;2023-05-02T13:34:00;99727.06;;;23.81;33.29
61805;BME280;47725;47.912;7.356;2023-05-02T13:38:00;99725.78;;;23.88;32.41
61805;BME280;47725;47.912;7.356;2023-05-02T13:42:00;99723.19;;;23.95;31.96
61805;BME280;47725;47.912;7.356;2023-05-02T13:46:00;99720.78;;;24.03;32.08
61805;BME280;47725;47.912;7.356;2023-05-02T13:50:00;99718.66;;;24.00;32.71
61805;BME280;47725;47.912;7.356;2023-05-02T13:54:00;99717.55;;;23.98;32.87
61805;BME280;47725;47.912;7.356;2023-05-02T13:58:00;99717.14;;;24.01;32.51
61805;BME280;47725;47.912;7.356;2023-05-02T14:02:00;99716.64;;;24.04;31.24
61805;BME280;47725;47.912;7.356;2023-05-02T14:06:00;99715.67;;;24.08;31.50
61805;BME280;47725;47.912;7.356;2023-05-02T14:10:00;99716.16;;;24.07;32.53
61805;BME280;47725;47.912;7.356;2023-05-02T14:14:00;99716.67;;;24.00;33.22
61805;BME280;47725;47.912;7.356;2023-05-02T14:18:00;99717.90;;;23.89;33.02
61805;BME280;47725;47.912;7.356;2023-05-02T14:22:00;99718.80;;;23.75;32.72
61805;BME280;47725;47.912;7.356;2023-05-02T14:26:00;99718.33;;;23.60;33.67
61805;BME280;47725;47.912;7.356;2023-05-02T14:30:00;99719.04;;;23.46;34.32
61805;BME280;47725;47.912;7.356;2023-05-02T14:34:00;99719.93;;;23.38;34.88
61805;BME280;47725;47.912;7.356;2023-05-02T14:38:00;99720.19;;;23.32;34.19
61805;BME280;47725;47.912;7.356;2023-05-02T14:42:00;99719.80;;;23.24;34.41
61805;BME280;47725;47.912;7.356;2023-05-02T14:46:00;99719.12;;;23.15;33.90
61805;BME280;47725;47.912;7.356;2023-05-02T14:50:04;99719.55;;;23.04;35.23
61805;BME280;47725;47.912;7.356;2023-05-02T14:54:00;99718.86;;;22.97;35.48
61805;BME280;47725;47.912;7.356;2023-05-02T14:58:00;99719.09;;;22.91;35.36
61805;BME280;47725;47.912;7.356;2023-05-02T15:02:00;99719.37;;;22.85;35.92
61805;BME280;47725;47.912;7.356;2023-05-02T15:06:00;99720.20;;;22.81;35.37
61805;BME280;47725;47.912;7.356;2023-05-02T15:10:00;99721.69;;;22.75;35.59
61805;BME280;47725;47.912;7.356;2023-05-02T15:14:00;99724.11;;;22.68;35.92
61805;BME280;47725;47.912;7.356;2023-05-02T15:18:00;99726.93;;;22.61;36.03
61805;BME280;47725;47.912;7.356;2023-05-02T15:22:00;99729.64;;;22.50;36.22
61805;BME280;47725;47.912;7.356;2023-05-02T15:26:00;99731.36;;;22.40;36.69
61805;BME280;47725;47.912;7.356;2023-05-02T15:30:00;99733.23;;;22.33;36.41
61805;BME280;47725;47.912;7.356;2023-05-02T15:34:00;99735.35;;;22.29;36.35
61805;BME280;47725;47.912;7.356;2023-05-02T15:38:00;99737.72;;;22.22;36.33
61805;BME280;47725;47.912;7.356;2023-05-02T15:42:04;99740.29;;;22.12;36.54
61805;BME280;47725;47.912;7.356;2023-05-02T15:46:00;99741.72;;;22.03;36.09
61805;BME280;47725;47.912;7.356;2023-05-02T15:50:00;99743.00;;;21.94;36.08
61805;BME280;47725;47.912;7.356;2023-05-02T15:54:00;99745.98;;;21.88;35.77
61805;BME280;47725;47.912;7.356;2023-05-02T15:58:00;99748.33;;;21.84;35.52
61805;BME280;47725;47.912;7.356;2023-05-02T16:02:00;99750.46;;;21.80;35.62
61805;BME280;47725;47.912;7.356;2023-05-02T16:06:00;99752.06;;;21.76;35.90
61805;BME280;47725;47.912;7.356;2023-05-02T16:10:00;99752.76;;;21.72;36.18
61805;BME280;47725;47.912;7.356;2023-05-02T16:14:00;99752.48;;;21.68;36.62
61805;BME280;47725;47.912;7.356;2023-05-02T16:18:00;99752.86;;;21.64;36.31
61805;BME280;47725;47.912;7.356;2023-05-02T16:22:00;99753.55;;;21.59;36.71
61805;BME280;47725;47.912;7.356;2023-05-02T16:26:00;99755.61;;;21.52;36.96
61805;BME280;47725;47.912;7.356;2023-05-02T16:30:00;99757.09;;;21.44;36.49
61805;BME280;47725;47.912;7.356;2023-05-02T16:34:00;99759.06;;;21.33;37.13
61805;BME280;47725;47.912;7.356;2023-05-02T16:38:00;99762.28;;;21.24;37.73
61805;BME280;47725;47.912;7.356;2023-05-02T16:42:00;99764.87;;;21.15;37.77
61805;BME280;47725;47.912;7.356;2023-05-02T16:46:04;99768.36;;;21.05;37.75
61805;BME280;47725;47.912;7.356;2023-05-02T16:50:00;99771.66;;;20.95;38.11
61805;BME280;47725;47.912;7.356;2023-05-02T16:54:00;99773.94;;;20.84;38.60
61805;BME280;47725;47.912;7.356;2023-05-02T16:58:00;99777.78;;;20.75;38.52
61805;BME280;47725;47.912;7.356;2023-05-02T17:02:00;99780.36;;;20.66;39.46
61805;BME280;47725;47.912;7.356;2023-05-02T17:06:00;99783.20;;;20.55;39.92
61805;BME280;47725;47.912;7.356;2023-05-02T17:10:00;99784.89;;;20.44;39.91
61805;BME280;47725;47.912;7.356;2023-05-02T17:14:00;99786.75;;;20.34;40.56
61805;BME280;47725;47.912;7.356;2023-05-02T17:18:00;99788.09;;;20.25;39.85
61805;BME280;47725;47.912;7.356;2023-05-02T17:22:00;99790.02;;;20.17;39.45
61805;BME280;47725;47.912;7.356;2023-05-02T17:26:00;99793.19;;;20.08;39.83
61805;BME280;47725;47.912;7.356;2023-05-02T17:30:00;99795.96;;;19.99;39.80
61805;BME280;47725;47.912;7.356;2023-05-02T17:34:00;99797.05;;;19.94;39.60
61805;BME280;47725;47.912;7.356;2023-05-02T17:38:00;99798.19;;;19.87;40.33
61805;BME280;47725;47.912;7.356;2023-05-02T17:42:00;99799.66;;;19.78;40.53
61805;BME280;47725;47.912;7.356;2023-05-02T17:46:05;99802.19;;;19.69;40.65
61805;BME280;47725;47.912;7.356;2023-05-02T17:50:00;99804.72;;;19.61;40.80
61805;BME280;47725;47.912;7.356;2023-05-02T17:54:00;99807.73;;;19.52;40.91
61805;BME280;47725;47.912;7.356;2023-05-02T17:58:00;99811.77;;;19.42;41.30
61805;BME280;47725;47.912;7.356;2023-05-02T18:02:00;99815.40;;;19.33;41.11
61805;BME280;47725;47.912;7.356;2023-05-02T18:06:00;99817.78;;;19.24;41.35
61805;BME280;47725;47.912;7.356;2023-05-02T18:10:00;99819.05;;;19.16;41.49
61805;BME280;47725;47.912;7.356;2023-05-02T18:14:00;99820.72;;;19.07;41.88
61805;BME280;47725;47.912;7.356;2023-05-02T18:18:00;99822.96;;;18.98;41.87
61805;BME280;47725;47.912;7.356;2023-05-02T18:22:00;99825.17;;;18.89;42.09
61805;BME280;47725;47.912;7.356;2023-05-02T18:26:00;99827.23;;;18.81;42.14
61805;BME280;47725;47.912;7.356;2023-05-02T18:30:00;99828.36;;;18.72;42.31
61805;BME280;47725;47.912;7.356;2023-05-02T18:34:00;99830.27;;;18.63;42.52
61805;BME280;47725;47.912;7.356;2023-05-02T18:38:00;99832.01;;;18.55;42.73
61805;BME280;47725;47.912;7.356;2023-05-02T18:42:00;99834.94;;;18.46;42.85
61805;BME280;47725;47.912;7.356;2023-05-02T18:46:00;99838.76;;;18.36;42.91
61805;BME280;47725;47.912;7.356;2023-05-02T18:50:00;99842.17;;;18.26;43.38
61805;BME280;47725;47.912;7.356;2023-05-02T18:54:00;99846.40;;;18.16;43.56
61805;BME280;47725;47.912;7.356;2023-05-02T18:58:00;99850.98;;;18.05;43.60
61805;BME280;47725;47.912;7.356;2023-05-02T19:02:00;99855.78;;;17.93;43.75
61805;BME280;47725;47.912;7.356;2023-05-02T19:06:00;99859.29;;;17.81;43.71
61805;BME280;47725;47.912;7.356;2023-05-02T19:10:00;99863.53;;;17.70;43.99
61805;BME280;47725;47.912;7.356;2023-05-02T19:14:00;99867.52;;;17.59;44.04
61805;BME280;47725;47.912;7.356;2023-05-02T19:18:00;99870.36;;;17.48;44.25
61805;BME280;47725;47.912;7.356;2023-05-02T19:22:00;99871.81;;;17.38;44.37
61805;BME280;47725;47.912;7.356;2023-05-02T19:26:00;99874.04;;;17.29;44.34
61805;BME280;47725;47.912;7.356;2023-05-02T19:30:00;99877.23;;;17.20;44.61
61805;BME280;47725;47.912;7.356;2023-05-02T19:34:00;99880.81;;;17.12;44.68
61805;BME280;47725;47.912;7.356;2023-05-02T19:38:00;99884.09;;;17.04;44.77
61805;BME280;47725;47.912;7.356;2023-05-02T19:42:00;99888.20;;;16.96;44.78
61805;BME280;47725;47.912;7.356;2023-05-02T19:46:00;99891.75;;;16.87;44.92
61805;BME280;47725;47.912;7.356;2023-05-02T19:50:00;99896.38;;;16.77;45.40
61805;BME280;47725;47.912;7.356;2023-05-02T19:54:00;99901.08;;;16.67;45.65
61805;BME280;47725;47.912;7.356;2023-05-02T19:58:00;99904.30;;;16.57;45.98
61805;BME280;47725;47.912;7.356;2023-05-02T20:02:00;99908.98;;;16.47;46.25
61805;BME280;47725;47.912;7.356;2023-05-02T20:06:00;99911.72;;;16.38;46.22
61805;BME280;47725;47.912;7.356;2023-05-02T20:10:00;99913.51;;;16.29;46.34
61805;BME280;47725;47.912;7.356;2023-05-02T20:14:00;99915.08;;;16.20;46.72
61805;BME280;47725;47.912;7.356;2023-05-02T20:18:00;99916.39;;;16.12;46.98
61805;BME280;47725;47.912;7.356;2023-05-02T20:22:00;99918.13;;;16.04;47.03
61805;BME280;47725;47.912;7.356;2023-05-02T20:26:00;99920.15;;;15.96;47.79
61805;BME280;47725;47.912;7.356;2023-05-02T20:30:00;99922.13;;;15.89;47.46
61805;BME280;47725;47.912;7.356;2023-05-02T20:34:00;99924.57;;;15.81;47.68
61805;BME280;47725;47.912;7.356;2023-05-02T20:38:00;99927.08;;;15.73;47.78
61805;BME280;47725;47.912;7.356;2023-05-02T20:42:00;99929.72;;;15.64;47.76
61805;BME280;47725;47.912;7.356;2023-05-02T20:46:07;99932.81;;;15.54;48.05
61805;BME280;47725;47.912;7.356;2023-05-02T20:50:00;99935.28;;;15.45;48.25
61805;BME280;47725;47.912;7.356;2023-05-02T20:54:00;99937.48;;;15.35;48.47
61805;BME280;47725;47.912;7.356;2023-05-02T20:58:00;99939.18;;;15.26;48.76
61805;BME280;47725;47.912;7.356;2023-05-02T21:02:00;99940.86;;;15.17;48.92
61805;BME280;47725;47.912;7.356;2023-05-02T21:06:00;99942.52;;;15.09;48.81
61805;BME280;47725;47.912;7.356;2023-05-02T21:10:00;99943.72;;;15.00;49.19
61805;BME280;47725;47.912;7.356;2023-05-02T21:14:00;99944.23;;;14.92;49.87
61805;BME280;47725;47.912;7.356;2023-05-02T21:18:03;99943.01;;;14.83;49.69
61805;BME280;47725;47.912;7.356;2023-05-02T21:22:00;99941.66;;;14.74;50.42
61805;BME280;47725;47.912;7.356;2023-05-02T21:26:00;99942.35;;;14.68;50.17
61805;BME280;47725;47.912;7.356;2023-05-02T21:30:00;99942.64;;;14.63;50.30
61805;BME280;47725;47.912;7.356;2023-05-02T21:34:00;99943.95;;;14.60;49.94
61805;BME280;47725;47.912;7.356;2023-05-02T21:38:00;99945.79;;;14.58;50.26
61805;BME280;47725;47.912;7.356;2023-05-02T21:42:00;99947.33;;;14.55;50.42
61805;BME280;47725;47.912;7.356;2023-05-02T21:46:00;99948.71;;;14.54;50.19
61805;BME280;47725;47.912;7.356;2023-05-02T21:50:00;99948.91;;;14.53;50.42